Time;durP1;ratioP1;P1;durP2;ratioP2;P2;SDS_P1;SDS_P2;PMS_P1;PMS_P2;Temp;Humidity;BMP_temperature;BMP_pressure;BME280_temperature;BME280_humidity;BME280_pressure;Samples;Min_cycle;Max_cycle;Signal;HPM_P1;HPM_P2
2024/03/07 00:00:54;;;;;;;;;;;;;;;;;;5090265;28;19919;-57
2024/03/07 00:03:19;;;;;;;;;;;;;;;;;;5087755;28;19916;-59
2024/03/07 00:05:45;;;;;;;;;;;;;;;;;;5090568;28;19919;-57
2024/03/07 00:08:11;;;;;;;;;;;;;;;;;;5088597;28;19924;-57
2024/03/07 00:10:36;;;;;;;;;;;;;;;;;;5091584;28;19967;-58
2024/03/07 00:13:03;;;;;;;;;;;;;;;;;;5089453;28;20006;-57
2024/03/07 00:15:30;;;;;;;;;;;;;;;;;;5084960;28;19920;-58
2024/03/07 00:17:55;;;;;;;;;;;;;;;;;;5090676;28;19923;-58
2024/03/07 00:20:20;;;;;;;;;;;;;;;;;;5086139;28;19916;-57
2024/03/07 00:22:45;;;;;;;;;;;;;;;;;;5090089;28;20310;-57
2024/03/07 00:25:11;;;;;;;;;;;;;;;;;;5086248;28;19958;-62
2024/03/07 00:27:36;;;;;;;;;;;;;;;;;;5085745;28;20003;-57
2024/03/07 00:30:01;;;;;;;;;;;;;;;;;;5087099;28;19975;-58
2024/03/07 00:32:29;;;;;;;;;;;;;;;;;;5089348;28;19921;-57
2024/03/07 00:34:54;;;;;;;;;;;;;;;;;;5088971;28;20276;-58
2024/03/07 00:37:20;;;;;;;;;;;;;;;;;;5083984;28;20373;-57
2024/03/07 00:39:45;;;;;;;;;;;;;;;;;;5087711;28;19916;-57
2024/03/07 00:42:10;;;;;;;;;;;;;;;;;;5088465;28;20003;-57
2024/03/07 00:44:35;;;;;;;;;;;;;;;;;;5091841;28;19931;-58
2024/03/07 00:47:01;;;;;;;;;;;;;;;;;;5086470;28;19946;-58
2024/03/07 00:49:28;;;;;;;;;;;;;;;;;;5086560;28;20341;-57
2024/03/07 00:51:53;;;;;;;;;;;;;;;;;;5071215;28;19912;-57
2024/03/07 00:54:18;;;;;;;;;;;;;;;;;;5086094;28;19912;-57
2024/03/07 00:56:44;;;;;;;;;;;;;;;;;;5085310;28;20373;-57
2024/03/07 00:59:09;;;;;;;;;;;;;;;;;;5084046;28;19935;-57
2024/03/07 01:01:36;;;;;;;;;;;;;;;;;;5084813;28;20037;-58
2024/03/07 01:04:01;;;;;;;;;;;;;;;;;;5083629;28;20505;-57
2024/03/07 01:06:27;;;;;;;;;;;;;;;;;;5089893;28;19909;-58
2024/03/07 01:08:52;;;;;;;;;;;;;;;;;;5084134;28;19924;-57
2024/03/07 01:11:17;;;;;;;;;;;;;;;;;;5091293;28;19916;-57
2024/03/07 01:13:42;;;;;;;;;;;;;;;;;;5082842;28;19965;-57
2024/03/07 01:16:07;;;;;;;;;;;;;;;;;;5083306;28;19940;-63
2024/03/07 01:18:33;;;;;;;;;;;;;;;;;;5086827;28;20335;-64
2024/03/07 01:20:58;;;;;;;;;;;;;;;;;;5087562;28;19948;-64
2024/03/07 01:23:23;;;;;;;;;;;;;;;;;;5086493;28;19970;-63
2024/03/07 01:25:48;;;;;;;;;;;;;;;;;;5085770;28;19964;-64
2024/03/07 01:28:14;;;;;;;;;;;;;;;;;;5088503;28;19927;-64
2024/03/07 01:30:39;;;;;;;;;;;;;;;;;;5078428;28;20379;-62
2024/03/07 01:33:04;;;;;;;;;;;;;;;;;;5089530;28;19961;-64
2024/03/07 01:35:29;;;;;;;;;;;;;;;;;;5085858;28;19920;-64
2024/03/07 01:37:54;;;;;;;;;;;;;;;;;;5084087;28;19920;-63
2024/03/07 01:40:20;;;;;;;;;;;;;;;;;;5082957;28;19930;-63
2024/03/07 01:42:45;;;;;;;;;;;;;;;;;;5089134;28;20366;-65
2024/03/07 01:45:10;;;;;;;;;;;;;;;;;;5087699;28;20479;-64
2024/03/07 01:47:39;;;;;;;;;;;;;;;;;;5089181;28;20399;-64
2024/03/07 01:50:04;;;;;;;;;;;;;;;;;;5084574;28;20375;-65
2024/03/07 01:52:29;;;;;;;;;;;;;;;;;;5082285;28;20425;-64
2024/03/07 01:54:54;;;;;;;;;;;;;;;;;;5083546;28;19913;-64
2024/03/07 01:57:19;;;;;;;;;;;;;;;;;;5085004;28;19920;-64
2024/03/07 01:59:44;;;;;;;;;;;;;;;;;;5084739;28;19959;-63
2024/03/07 02:02:10;;;;;;;;;;;;;;;;;;5088103;28;19989;-64
2024/03/07 02:04:35;;;;;;;;;;;;;;;;;;5090006;28;19915;-65
2024/03/07 02:07:00;;;;;;;;;;;;;;;;;;5078256;28;19920;-65
2024/03/07 02:09:25;;;;;;;;;;;;;;;;;;5089681;28;20346;-64
2024/03/07 02:11:50;;;;;;;;;;;;;;;;;;5083569;28;19927;-63
2024/03/07 02:14:16;;;;;;;;;;;;;;;;;;5088541;28;19959;-64
2024/03/07 02:16:41;;;;;;;;;;;;;;;;;;5083347;28;19966;-64
2024/03/07 02:19:06;;;;;;;;;;;;;;;;;;5089060;28;19954;-64
2024/03/07 02:21:32;;;;;;;;;;;;;;;;;;5082867;28;19928;-65
2024/03/07 02:23:58;;;;;;;;;;;;;;;;;;5084083;28;19921;-64
2024/03/07 02:26:23;;;;;;;;;;;;;;;;;;5077580;28;19916;-58
2024/03/07 02:28:48;;;;;;;;;;;;;;;;;;5083923;28;19931;-57
2024/03/07 02:31:13;;;;;;;;;;;;;;;;;;5082066;28;20619;-57
2024/03/07 02:33:38;;;;;;;;;;;;;;;;;;5085665;28;19917;-57
2024/03/07 02:36:03;;;;;;;;;;;;;;;;;;5086147;28;20010;-57
2024/03/07 02:38:28;;;;;;;;;;;;;;;;;;5082387;28;19919;-57
2024/03/07 02:40:53;;;;;;;;;;;;;;;;;;5089638;28;19932;-58
2024/03/07 02:43:19;;;;;;;;;;;;;;;;;;5081787;28;19912;-58
2024/03/07 02:45:44;;;;;;;;;;;;;;;;;;5085429;28;19987;-57
2024/03/07 02:48:09;;;;;;;;;;;;;;;;;;5084136;28;19918;-57
2024/03/07 02:50:34;;;;;;;;;;;;;;;;;;5084234;28;19948;-57
2024/03/07 02:52:59;;;;;;;;;;;;;;;;;;5084313;28;20009;-58
2024/03/07 02:55:24;;;;;;;;;;;;;;;;;;5065976;28;20594;-57
2024/03/07 02:57:50;;;;;;;;;;;;;;;;;;5090331;28;19912;-57
2024/03/07 03:00:26;;;;;;;;;;;;;;;;;;5078714;28;19920;-58
2024/03/07 03:02:51;;;;;;;;;;;;;;;;;;5082916;28;19912;-57
2024/03/07 03:05:18;;;;;;;;;;;;;;;;;;5086127;28;19913;-58
2024/03/07 03:07:52;;;;;;;;;;;;;;;;;;5085488;28;19912;-58
2024/03/07 03:10:17;;;;;;;;;;;;;;;;;;5079829;28;19920;-60
2024/03/07 03:12:42;;;;;;;;;;;;;;;;;;5080464;28;19912;-57
2024/03/07 03:15:09;;;;;;;;;;;;;;;;;;5082251;28;19912;-57
2024/03/07 03:17:35;;;;;;;;;;;;;;;;;;5085711;28;19977;-59
2024/03/07 03:20:00;;;;;;;;;;;;;;;;;;5086960;28;19924;-58
2024/03/07 03:22:26;;;;;;;;;;;;;;;;;;5084955;28;20254;-57
2024/03/07 03:24:55;;;;;;;;;;;;;;;;;;5086891;28;20027;-57
2024/03/07 03:27:20;;;;;;;;;;;;;;;;;;5079412;28;19951;-57
2024/03/07 03:29:45;;;;;;;;;;;;;;;;;;5081879;28;19955;-58
2024/03/07 03:32:10;;;;;;;;;;;;;;;;;;5086435;28;19916;-57
2024/03/07 03:34:36;;;;;;;;;;;;;;;;;;5091658;28;19916;-58
2024/03/07 03:37:01;;;;;;;;;;;;;;;;;;5083824;28;19913;-63
2024/03/07 03:39:26;;;;;;;;;;;;;;;;;;5090392;28;20341;-63
2024/03/07 03:41:52;;;;;;;;;;;;;;;;;;5088835;28;19924;-64
2024/03/07 03:44:17;;;;;;;;;;;;;;;;;;5087267;28;19924;-64
2024/03/07 03:46:43;;;;;;;;;;;;;;;;;;5090577;28;19929;-64
2024/03/07 03:49:08;;;;;;;;;;;;;;;;;;5092992;28;19923;-62
2024/03/07 03:51:33;;;;;;;;;;;;;;;;;;5090630;28;19912;-63
2024/03/07 03:53:58;;;;;;;;;;;;;;;;;;5087675;28;19959;-64
2024/03/07 03:56:24;;;;;;;;;;;;;;;;;;5092196;28;19912;-63
2024/03/07 03:58:49;;;;;;;;;;;;;;;;;;5084601;28;20209;-63
2024/03/07 04:01:16;;;;;;;;;;;;;;;;;;5089235;28;19926;-63
2024/03/07 04:03:42;;;;;;;;;;;;;;;;;;5090879;28;20368;-63
2024/03/07 04:06:07;;;;;;;;;;;;;;;;;;5089545;28;19918;-63
2024/03/07 04:08:32;;;;;;;;;;;;;;;;;;5086674;28;19996;-63
2024/03/07 04:10:58;;;;;;;;;;;;;;;;;;5088597;28;19912;-62
2024/03/07 04:13:23;;;;;;;;;;;;;;;;;;5085295;28;19913;-63
2024/03/07 04:15:48;;;;;;;;;;;;;;;;;;5086979;28;19919;-64
2024/03/07 04:18:13;;;;;;;;;;;;;;;;;;5089529;28;19916;-63
2024/03/07 04:20:39;;;;;;;;;;;;;;;;;;5083756;28;20007;-63
2024/03/07 04:23:05;;;;;;;;;;;;;;;;;;5089171;28;19920;-63
2024/03/07 04:25:31;;;;;;;;;;;;;;;;;;5087194;28;19924;-64
2024/03/07 04:27:56;;;;;;;;;;;;;;;;;;5086022;28;19919;-64
2024/03/07 04:30:21;;;;;;;;;;;;;;;;;;5085103;28;19919;-64
2024/03/07 04:32:46;;;;;;;;;;;;;;;;;;5090967;28;19916;-64
2024/03/07 04:35:12;;;;;;;;;;;;;;;;;;5083905;28;20644;-64
2024/03/07 04:37:37;;;;;;;;;;;;;;;;;;5086852;28;19923;-63
2024/03/07 04:40:04;;;;;;;;;;;;;;;;;;5090432;28;20368;-64
2024/03/07 04:42:30;;;;;;;;;;;;;;;;;;5089456;28;19917;-64
2024/03/07 04:44:56;;;;;;;;;;;;;;;;;;5084463;28;19935;-64
2024/03/07 04:47:21;;;;;;;;;;;;;;;;;;5090322;28;19912;-64
2024/03/07 04:49:46;;;;;;;;;;;;;;;;;;5084862;28;19922;-64
2024/03/07 04:52:11;;;;;;;;;;;;;;;;;;5088722;28;19916;-63
2024/03/07 04:54:36;;;;;;;;;;;;;;;;;;5088090;28;19952;-63
2024/03/07 04:57:02;;;;;;;;;;;;;;;;;;5084701;28;19920;-63
2024/03/07 04:59:27;;;;;;;;;;;;;;;;;;5085046;28;19916;-64
2024/03/07 05:01:52;;;;;;;;;;;;;;;;;;5089498;28;20391;-63
2024/03/07 05:04:17;;;;;;;;;;;;;;;;;;5090347;28;19935;-64
2024/03/07 05:06:43;;;;;;;;;;;;;;;;;;5086362;28;19937;-62
2024/03/07 05:09:08;;;;;;;;;;;;;;;;;;5088702;28;20010;-64
2024/03/07 05:11:33;;;;;;;;;;;;;;;;;;5082792;28;19969;-64
2024/03/07 05:13:59;;;;;;;;;;;;;;;;;;5084694;28;19912;-63
2024/03/07 05:16:24;;;;;;;;;;;;;;;;;;5085437;28;19916;-64
2024/03/07 05:18:50;;;;;;;;;;;;;;;;;;5085223;28;21950;-64
2024/03/07 05:23:59;;;;;;;;;;;;;;;;;;5085601;28;19920;-63
2024/03/07 05:26:24;;;;;;;;;;;;;;;;;;5079123;28;19939;-64
2024/03/07 05:28:49;;;;;;;;;;;;;;;;;;5073104;28;19970;-63
2024/03/07 05:31:14;;;;;;;;;;;;;;;;;;5080391;28;20297;-64
2024/03/07 05:33:40;;;;;;;;;;;;;;;;;;5078737;28;19948;-62
2024/03/07 05:36:14;;;;;;;;;;;;;;;;;;5085610;28;19912;-65
2024/03/07 05:38:39;;;;;;;;;;;;;;;;;;5075044;28;19912;-64
2024/03/07 05:41:04;;;;;;;;;;;;;;;;;;5073129;28;19947;-64
2024/03/07 05:43:30;;;;;;;;;;;;;;;;;;5082967;28;19961;-61
2024/03/07 05:45:55;;;;;;;;;;;;;;;;;;5079308;28;20382;-63
2024/03/07 05:48:20;;;;;;;;;;;;;;;;;;5073456;28;20329;-64
2024/03/07 05:50:45;;;;;;;;;;;;;;;;;;5078842;28;19913;-63
2024/03/07 05:53:11;;;;;;;;;;;;;;;;;;5072602;28;19912;-63
2024/03/07 05:55:37;;;;;;;;;;;;;;;;;;5084022;28;19912;-64
2024/03/07 05:58:02;;;;;;;;;;;;;;;;;;5088119;28;19916;-57
2024/03/07 06:00:27;;;;;;;;;;;;;;;;;;5080480;28;19916;-58
2024/03/07 06:02:53;;;;;;;;;;;;;;;;;;5076005;28;19916;-57
2024/03/07 06:05:19;;;;;;;;;;;;;;;;;;5086882;28;20671;-58
2024/03/07 06:07:45;;;;;;;;;;;;;;;;;;5087713;28;19919;-58
2024/03/07 06:10:11;;;;;;;;;;;;;;;;;;5085650;28;19924;-57
2024/03/07 06:12:36;;;;;;;;;;;;;;;;;;5089305;28;19965;-58
2024/03/07 06:15:02;;;;;;;;;;;;;;;;;;5084657;28;20030;-58
2024/03/07 06:17:27;;;;;;;;;;;;;;;;;;5077120;28;19922;-58
2024/03/07 06:19:52;;;;;;;;;;;;;;;;;;5077366;28;19935;-58
2024/03/07 06:22:18;;;;;;;;;;;;;;;;;;5083930;28;19916;-57
2024/03/07 06:24:43;;;;;;;;;;;;;;;;;;5074173;28;20589;-57
2024/03/07 06:27:16;;;;;;;;;;;;;;;;;;5072985;28;19923;-58
2024/03/07 06:29:41;;;;;;;;;;;;;;;;;;5079113;28;19962;-57
2024/03/07 06:32:06;;;;;;;;;;;;;;;;;;5083683;28;19916;-57
2024/03/07 06:34:32;;;;;;;;;;;;;;;;;;5079278;28;19912;-57
2024/03/07 06:36:58;;;;;;;;;;;;;;;;;;5075471;28;19916;-58
2024/03/07 06:39:23;;;;;;;;;;;;;;;;;;5079144;28;20522;-57
2024/03/07 06:41:48;;;;;;;;;;;;;;;;;;5083537;28;19928;-57
2024/03/07 06:44:13;;;;;;;;;;;;;;;;;;5079431;28;20016;-57
2024/03/07 06:46:38;;;;;;;;;;;;;;;;;;5084548;28;19947;-57
2024/03/07 06:49:05;;;;;;;;;;;;;;;;;;5078237;28;19916;-57
2024/03/07 06:51:30;;;;;;;;;;;;;;;;;;5075817;28;19920;-59
2024/03/07 06:53:55;;;;;;;;;;;;;;;;;;5076336;28;19916;-57
2024/03/07 06:56:21;;;;;;;;;;;;;;;;;;5074763;28;20353;-57
2024/03/07 06:58:48;;;;;;;;;;;;;;;;;;5084370;28;19920;-57
2024/03/07 07:01:15;;;;;;;;;;;;;;;;;;5078692;28;19917;-58
2024/03/07 07:03:40;;;;;;;;;;;;;;;;;;5076522;28;20056;-59
2024/03/07 07:06:08;;;;;;;;;;;;;;;;;;5086123;28;19916;-57
2024/03/07 07:08:33;;;;;;;;;;;;;;;;;;5063522;28;20435;-63
2024/03/07 07:10:58;;;;;;;;;;;;;;;;;;5088091;28;19995;-63
2024/03/07 07:13:23;;;;;;;;;;;;;;;;;;5080295;28;19923;-63
2024/03/07 07:15:49;;;;;;;;;;;;;;;;;;5084014;28;19923;-63
2024/03/07 07:18:14;;;;;;;;;;;;;;;;;;5080828;28;19918;-63
2024/03/07 07:20:39;;;;;;;;;;;;;;;;;;5087904;28;19958;-63
2024/03/07 07:23:04;;;;;;;;;;;;;;;;;;5089085;28;19919;-61
2024/03/07 07:25:29;;;;;;;;;;;;;;;;;;5090963;28;19976;-63
2024/03/07 07:27:54;;;;;;;;;;;;;;;;;;5091738;28;20253;-62
2024/03/07 07:30:22;;;;;;;;;;;;;;;;;;5092501;28;20432;-63
2024/03/07 07:32:47;;;;;;;;;;;;;;;;;;5086115;28;19920;-63
2024/03/07 07:35:12;;;;;;;;;;;;;;;;;;5076668;28;19912;-63
2024/03/07 07:37:37;;;;;;;;;;;;;;;;;;5079552;28;20000;-65
2024/03/07 07:40:03;;;;;;;;;;;;;;;;;;5086456;28;19949;-64
2024/03/07 07:42:28;;;;;;;;;;;;;;;;;;5078298;28;19924;-62
2024/03/07 07:44:53;;;;;;;;;;;;;;;;;;5078550;28;19916;-61
2024/03/07 07:47:19;;;;;;;;;;;;;;;;;;5078940;28;19920;-63
2024/03/07 07:49:44;;;;;;;;;;;;;;;;;;5079310;28;19959;-63
2024/03/07 07:52:09;;;;;;;;;;;;;;;;;;5085757;28;19912;-63
2024/03/07 07:54:34;;;;;;;;;;;;;;;;;;5088992;28;19999;-63
2024/03/07 07:56:59;;;;;;;;;;;;;;;;;;5081667;28;19916;-63
2024/03/07 07:59:24;;;;;;;;;;;;;;;;;;5075571;28;19917;-62
2024/03/07 08:01:50;;;;;;;;;;;;;;;;;;5077188;28;19920;-62
2024/03/07 08:04:15;;;;;;;;;;;;;;;;;;5081024;28;19917;-63
2024/03/07 08:06:40;;;;;;;;;;;;;;;;;;5074852;28;19912;-63
2024/03/07 08:09:09;;;;;;;;;;;;;;;;;;5087041;28;19916;-62
2024/03/07 08:11:35;;;;;;;;;;;;;;;;;;5081628;28;19916;-63
2024/03/07 08:14:00;;;;;;;;;;;;;;;;;;5067753;28;20280;-62
2024/03/07 08:16:25;;;;;;;;;;;;;;;;;;5081126;28;19912;-58
2024/03/07 08:18:50;;;;;;;;;;;;;;;;;;5084355;28;19916;-57
2024/03/07 08:21:15;;;;;;;;;;;;;;;;;;5078166;28;20280;-58
2024/03/07 08:23:41;;;;;;;;;;;;;;;;;;5072910;28;20273;-57
2024/03/07 08:26:06;;;;;;;;;;;;;;;;;;5073822;28;19960;-57
2024/03/07 08:28:31;;;;;;;;;;;;;;;;;;5080134;28;20002;-59
2024/03/07 08:30:56;;;;;;;;;;;;;;;;;;5090677;28;20295;-57
2024/03/07 08:33:21;;;;;;;;;;;;;;;;;;5080331;28;20079;-58
2024/03/07 08:35:47;;;;;;;;;;;;;;;;;;5082127;28;20277;-59
2024/03/07 08:38:12;;;;;;;;;;;;;;;;;;5080332;28;20003;-57
2024/03/07 08:40:37;;;;;;;;;;;;;;;;;;5079535;28;20389;-58
2024/03/07 08:43:07;;;;;;;;;;;;;;;;;;5078619;28;20011;-58
2024/03/07 08:45:33;;;;;;;;;;;;;;;;;;5085723;28;20266;-57
2024/03/07 08:47:58;;;;;;;;;;;;;;;;;;5073131;28;19913;-58
2024/03/07 08:50:23;;;;;;;;;;;;;;;;;;5078100;28;19924;-58
2024/03/07 08:52:48;;;;;;;;;;;;;;;;;;5089315;28;19957;-57
2024/03/07 08:55:14;;;;;;;;;;;;;;;;;;5073599;28;19965;-58
2024/03/07 08:57:39;;;;;;;;;;;;;;;;;;5081361;28;19917;-57
2024/03/07 09:00:08;;;;;;;;;;;;;;;;;;5078322;28;19912;-57
2024/03/07 09:02:34;;;;;;;;;;;;;;;;;;5073363;28;19920;-58
2024/03/07 09:04:59;;;;;;;;;;;;;;;;;;5082442;28;19938;-58
2024/03/07 09:07:24;;;;;;;;;;;;;;;;;;5074840;28;20003;-57
2024/03/07 09:09:50;;;;;;;;;;;;;;;;;;5080273;28;20058;-59
2024/03/07 09:12:15;;;;;;;;;;;;;;;;;;5082105;28;19919;-58
2024/03/07 09:14:40;;;;;;;;;;;;;;;;;;5089843;28;19919;-58
2024/03/07 09:17:05;;;;;;;;;;;;;;;;;;5076153;28;19944;-57
2024/03/07 09:19:30;;;;;;;;;;;;;;;;;;5074024;28;19920;-60
2024/03/07 09:21:56;;;;;;;;;;;;;;;;;;5080283;28;19954;-58
2024/03/07 09:24:21;;;;;;;;;;;;;;;;;;5080792;28;19946;-57
2024/03/07 09:26:46;;;;;;;;;;;;;;;;;;5084041;28;19912;-57
2024/03/07 09:29:12;;;;;;;;;;;;;;;;;;5081937;28;19923;-58
2024/03/07 09:31:39;;;;;;;;;;;;;;;;;;5081570;28;19916;-58
2024/03/07 09:34:04;;;;;;;;;;;;;;;;;;5078797;28;20363;-59
2024/03/07 09:36:29;;;;;;;;;;;;;;;;;;5083632;28;20628;-59
2024/03/07 09:38:56;;;;;;;;;;;;;;;;;;5085114;28;20250;-58
2024/03/07 09:41:24;;;;;;;;;;;;;;;;;;5083202;28;20038;-59
2024/03/07 09:43:49;;;;;;;;;;;;;;;;;;5076389;28;19935;-58
2024/03/07 09:46:14;;;;;;;;;;;;;;;;;;5077008;28;19912;-58
2024/03/07 09:48:40;;;;;;;;;;;;;;;;;;5080166;28;20030;-58
2024/03/07 09:51:05;;;;;;;;;;;;;;;;;;5088948;28;19919;-58
2024/03/07 09:53:30;;;;;;;;;;;;;;;;;;5085860;28;19923;-58
2024/03/07 09:55:55;;;;;;;;;;;;;;;;;;5083959;28;20314;-59
2024/03/07 09:58:20;;;;;;;;;;;;;;;;;;5074532;28;19927;-59
2024/03/07 10:00:46;;;;;;;;;;;;;;;;;;5073467;28;19912;-58
2024/03/07 10:03:13;;;;;;;;;;;;;;;;;;5087536;28;19917;-58
2024/03/07 10:05:39;;;;;;;;;;;;;;;;;;5075339;28;20490;-58
2024/03/07 10:08:04;;;;;;;;;;;;;;;;;;5079827;28;19912;-58
2024/03/07 10:10:30;;;;;;;;;;;;;;;;;;5077305;28;19917;-60
2024/03/07 10:12:57;;;;;;;;;;;;;;;;;;5085233;28;19920;-58
2024/03/07 10:15:22;;;;;;;;;;;;;;;;;;5073918;28;19916;-59
2024/03/07 10:17:48;;;;;;;;;;;;;;;;;;5072026;28;20029;-58
2024/03/07 10:20:16;;;;;;;;;;;;;;;;;;5083558;28;19957;-59
2024/03/07 10:22:41;;;;;;;;;;;;;;;;;;5081318;28;19912;-58
2024/03/07 10:25:06;;;;;;;;;;;;;;;;;;5090612;28;20294;-58
2024/03/07 10:27:31;;;;;;;;;;;;;;;;;;5080452;28;19919;-58
2024/03/07 10:29:57;;;;;;;;;;;;;;;;;;5081898;28;19937;-58
2024/03/07 10:32:22;;;;;;;;;;;;;;;;;;5079180;28;19916;-58
2024/03/07 10:34:48;;;;;;;;;;;;;;;;;;5076566;28;19920;-57
2024/03/07 10:37:16;;;;;;;;;;;;;;;;;;5087146;28;19933;-63
2024/03/07 10:39:42;;;;;;;;;;;;;;;;;;5073635;28;19916;-62
2024/03/07 10:42:07;;;;;;;;;;;;;;;;;;5078717;28;20407;-63
2024/03/07 10:44:32;;;;;;;;;;;;;;;;;;5076472;28;19991;-63
2024/03/07 10:46:59;;;;;;;;;;;;;;;;;;5074702;28;19918;-62
2024/03/07 10:49:24;;;;;;;;;;;;;;;;;;5082411;28;19920;-62
2024/03/07 10:51:49;;;;;;;;;;;;;;;;;;5077953;28;19965;-63
2024/03/07 10:54:14;;;;;;;;;;;;;;;;;;5084632;28;20297;-64
2024/03/07 10:56:41;;;;;;;;;;;;;;;;;;5084193;28;19916;-63
2024/03/07 10:59:07;;;;;;;;;;;;;;;;;;5081912;28;19978;-63
2024/03/07 11:01:33;;;;;;;;;;;;;;;;;;5077592;28;20402;-62
2024/03/07 11:03:58;;;;;;;;;;;;;;;;;;5075800;28;19920;-63
2024/03/07 11:06:23;;;;;;;;;;;;;;;;;;5083841;28;19913;-62
2024/03/07 11:08:49;;;;;;;;;;;;;;;;;;5079497;28;20010;-63
2024/03/07 11:11:14;;;;;;;;;;;;;;;;;;5072514;28;19953;-62
2024/03/07 11:13:39;;;;;;;;;;;;;;;;;;5076073;28;23364;-62
2024/03/07 11:16:04;;;;;;;;;;;;;;;;;;5081729;28;19924;-63
2024/03/07 11:18:29;;;;;;;;;;;;;;;;;;5078601;28;19916;-63
2024/03/07 11:20:57;;;;;;;;;;;;;;;;;;5080826;28;19912;-63
2024/03/07 11:23:22;;;;;;;;;;;;;;;;;;5082399;28;20048;-63
2024/03/07 11:25:48;;;;;;;;;;;;;;;;;;5087986;28;20008;-63
2024/03/07 11:28:13;;;;;;;;;;;;;;;;;;5079024;28;19919;-62
2024/03/07 11:30:41;;;;;;;;;;;;;;;;;;5076907;28;19923;-62
2024/03/07 11:33:06;;;;;;;;;;;;;;;;;;5085685;28;19912;-63
2024/03/07 11:35:32;;;;;;;;;;;;;;;;;;5074063;28;19919;-63
2024/03/07 11:37:57;;;;;;;;;;;;;;;;;;5077049;28;20426;-62
2024/03/07 11:40:24;;;;;;;;;;;;;;;;;;5080876;28;20276;-62
2024/03/07 11:42:49;;;;;;;;;;;;;;;;;;5078362;28;20254;-65
2024/03/07 11:45:28;;;;;;;;;;;;;;;;;;5083605;28;19919;-62
2024/03/07 11:48:00;;;;;;;;;;;;;;;;;;5075804;28;19916;-58
2024/03/07 11:50:25;;;;;;;;;;;;;;;;;;5074761;28;19922;-59
2024/03/07 11:52:50;;;;;;;;;;;;;;;;;;5074671;28;20011;-59
2024/03/07 11:55:16;;;;;;;;;;;;;;;;;;5075207;28;19912;-58
2024/03/07 11:57:44;;;;;;;;;;;;;;;;;;5079312;28;20404;-59
2024/03/07 12:00:12;;;;;;;;;;;;;;;;;;5074270;28;19916;-58
2024/03/07 12:02:37;;;;;;;;;;;;;;;;;;5090699;28;19916;-57
2024/03/07 12:05:05;;;;;;;;;;;;;;;;;;5075965;28;19912;-58
2024/03/07 12:07:30;;;;;;;;;;;;;;;;;;5074239;28;19919;-58
2024/03/07 12:09:55;;;;;;;;;;;;;;;;;;5081845;28;19916;-58
2024/03/07 12:12:29;;;;;;;;;;;;;;;;;;5080875;28;19947;-58
2024/03/07 12:14:54;;;;;;;;;;;;;;;;;;5073883;28;19948;-59
2024/03/07 12:17:20;;;;;;;;;;;;;;;;;;5081039;28;19958;-58
2024/03/07 12:19:46;;;;;;;;;;;;;;;;;;5087504;28;20312;-58
2024/03/07 12:22:22;;;;;;;;;;;;;;;;;;5073191;28;19921;-58
2024/03/07 12:24:47;;;;;;;;;;;;;;;;;;5075117;28;19926;-58
2024/03/07 12:27:12;;;;;;;;;;;;;;;;;;5077144;28;19917;-60
2024/03/07 12:29:42;;;;;;;;;;;;;;;;;;5080952;28;19926;-59
2024/03/07 12:32:16;;;;;;;;;;;;;;;;;;5092944;28;20324;-58
2024/03/07 12:34:41;;;;;;;;;;;;;;;;;;5081939;28;20253;-58
2024/03/07 12:37:06;;;;;;;;;;;;;;;;;;5081742;28;19917;-58
2024/03/07 12:39:35;;;;;;;;;;;;;;;;;;5000297;28;2185408;-59
2024/03/07 12:42:00;;;;;;;;;;;;;;;;;;5082744;28;19953;-61
2024/03/07 12:44:25;;;;;;;;;;;;;;;;;;5080886;28;20356;-58
2024/03/07 12:46:53;;;;;;;;;;;;;;;;;;5086329;28;19916;-58
2024/03/07 12:49:19;;;;;;;;;;;;;;;;;;5081754;28;20405;-57
2024/03/07 12:51:44;;;;;;;;;;;;;;;;;;5077606;28;19943;-57
2024/03/07 12:54:09;;;;;;;;;;;;;;;;;;5074248;28;20643;-58
2024/03/07 12:56:34;;;;;;;;;;;;;;;;;;5081163;28;19913;-63
2024/03/07 12:59:01;;;;;;;;;;;;;;;;;;5092905;28;20003;-57
2024/03/07 13:01:26;;;;;;;;;;;;;;;;;;5079480;28;20368;-57
2024/03/07 13:03:53;;;;;;;;;;;;;;;;;;5075657;28;19916;-57
2024/03/07 13:06:25;;;;;;;;;;;;;;;;;;5073457;28;19916;-58
2024/03/07 13:08:50;;;;;;;;;;;;;;;;;;5077592;28;19916;-57
2024/03/07 13:11:15;;;;;;;;;;;;;;;;;;5081036;28;20010;-58
2024/03/07 13:13:40;;;;;;;;;;;;;;;;;;5073702;28;20395;-58
2024/03/07 13:16:06;;;;;;;;;;;;;;;;;;5078462;28;19912;-58
2024/03/07 13:18:33;;;;;;;;;;;;;;;;;;5074841;28;19912;-56
2024/03/07 13:20:58;;;;;;;;;;;;;;;;;;5090796;28;19916;-58
2024/03/07 13:23:27;;;;;;;;;;;;;;;;;;5074633;28;19916;-58
2024/03/07 13:25:52;;;;;;;;;;;;;;;;;;5088195;28;19916;-58
2024/03/07 13:28:19;;;;;;;;;;;;;;;;;;5080787;28;19916;-57
2024/03/07 13:30:48;;;;;;;;;;;;;;;;;;5073289;28;19917;-58
2024/03/07 13:33:13;;;;;;;;;;;;;;;;;;5072269;28;19981;-58
2024/03/07 13:35:38;;;;;;;;;;;;;;;;;;5078508;28;19958;-57
2024/03/07 13:38:04;;;;;;;;;;;;;;;;;;5078428;28;19917;-58
2024/03/07 13:40:30;;;;;;;;;;;;;;;;;;5077686;28;20396;-57
2024/03/07 13:42:56;;;;;;;;;;;;;;;;;;5076963;28;20163;-57
2024/03/07 13:45:21;;;;;;;;;;;;;;;;;;5084308;28;19912;-57
2024/03/07 13:47:48;;;;;;;;;;;;;;;;;;5088032;28;20360;-58
2024/03/07 13:50:13;;;;;;;;;;;;;;;;;;5070903;28;19920;-58
2024/03/07 13:52:43;;;;;;;;;;;;;;;;;;5082492;28;20336;-58
2024/03/07 13:55:11;;;;;;;;;;;;;;;;;;5082411;28;19919;-57
2024/03/07 13:57:40;;;;;;;;;;;;;;;;;;5071257;28;19947;-58
2024/03/07 14:00:13;;;;;;;;;;;;;;;;;;5074722;28;19916;-58
2024/03/07 14:02:39;;;;;;;;;;;;;;;;;;5084457;28;19921;-59
2024/03/07 14:05:04;;;;;;;;;;;;;;;;;;5083979;28;19917;-59
2024/03/07 14:07:29;;;;;;;;;;;;;;;;;;5071640;28;19912;-58
2024/03/07 14:09:54;;;;;;;;;;;;;;;;;;5070185;28;20011;-57
2024/03/07 14:12:20;;;;;;;;;;;;;;;;;;5077081;28;19946;-59
2024/03/07 14:14:49;;;;;;;;;;;;;;;;;;5075798;28;19919;-58
2024/03/07 14:17:14;;;;;;;;;;;;;;;;;;5071625;28;19917;-58
2024/03/07 14:19:40;;;;;;;;;;;;;;;;;;5082813;28;19912;-59
2024/03/07 14:22:05;;;;;;;;;;;;;;;;;;5073131;28;20230;-58
2024/03/07 14:24:31;;;;;;;;;;;;;;;;;;5083872;28;20356;-60
2024/03/07 14:26:56;;;;;;;;;;;;;;;;;;5072573;28;19913;-58
2024/03/07 14:29:21;;;;;;;;;;;;;;;;;;5084199;28;20311;-58
2024/03/07 14:31:50;;;;;;;;;;;;;;;;;;5079737;28;19924;-58
2024/03/07 14:34:17;;;;;;;;;;;;;;;;;;5071318;28;19923;-59
2024/03/07 14:36:44;;;;;;;;;;;;;;;;;;5070417;28;19913;-58
2024/03/07 14:39:13;;;;;;;;;;;;;;;;;;5069642;28;19912;-59
2024/03/07 14:41:38;;;;;;;;;;;;;;;;;;5071349;28;19971;-59
2024/03/07 14:44:07;;;;;;;;;;;;;;;;;;5072286;28;19982;-59
2024/03/07 14:46:32;;;;;;;;;;;;;;;;;;5072952;28;19995;-58
2024/03/07 14:48:57;;;;;;;;;;;;;;;;;;5072964;28;20008;-59
2024/03/07 14:51:23;;;;;;;;;;;;;;;;;;5078523;28;20389;-59
2024/03/07 14:53:49;;;;;;;;;;;;;;;;;;5079197;28;20011;-58
2024/03/07 14:56:14;;;;;;;;;;;;;;;;;;5075419;28;20342;-57
2024/03/07 14:58:39;;;;;;;;;;;;;;;;;;5082924;28;19917;-56
2024/03/07 15:01:06;;;;;;;;;;;;;;;;;;5079601;28;20542;-57
2024/03/07 15:03:31;;;;;;;;;;;;;;;;;;5080836;28;19921;-57
2024/03/07 15:05:56;;;;;;;;;;;;;;;;;;5071888;28;20327;-57
2024/03/07 15:08:23;;;;;;;;;;;;;;;;;;5071880;28;19920;-57
2024/03/07 15:10:48;;;;;;;;;;;;;;;;;;5080767;28;19916;-56
2024/03/07 15:13:14;;;;;;;;;;;;;;;;;;5070765;28;20109;-56
2024/03/07 15:15:40;;;;;;;;;;;;;;;;;;5070075;28;20249;-60
2024/03/07 15:18:05;;;;;;;;;;;;;;;;;;5081189;28;19912;-59
2024/03/07 15:20:31;;;;;;;;;;;;;;;;;;5083613;28;19931;-57
2024/03/07 15:22:56;;;;;;;;;;;;;;;;;;5073718;28;19928;-56
2024/03/07 15:25:22;;;;;;;;;;;;;;;;;;5080172;28;19927;-57
2024/03/07 15:27:48;;;;;;;;;;;;;;;;;;5076214;28;19916;-57
2024/03/07 15:30:14;;;;;;;;;;;;;;;;;;5068373;28;20399;-57
2024/03/07 15:32:39;;;;;;;;;;;;;;;;;;5080239;28;19913;-56
2024/03/07 15:35:09;;;;;;;;;;;;;;;;;;5079424;28;19912;-57
2024/03/07 15:37:35;;;;;;;;;;;;;;;;;;5079589;28;19916;-57
2024/03/07 15:40:00;;;;;;;;;;;;;;;;;;5075143;28;20007;-58
2024/03/07 15:42:27;;;;;;;;;;;;;;;;;;5078185;28;20008;-56
2024/03/07 15:44:52;;;;;;;;;;;;;;;;;;5076760;28;20319;-57
2024/03/07 15:47:17;;;;;;;;;;;;;;;;;;5073392;28;19921;-57
2024/03/07 15:49:42;;;;;;;;;;;;;;;;;;5086946;28;19938;-56
2024/03/07 15:52:07;;;;;;;;;;;;;;;;;;5077946;28;19999;-56
2024/03/07 15:54:33;;;;;;;;;;;;;;;;;;5076084;28;19916;-56
2024/03/07 15:56:58;;;;;;;;;;;;;;;;;;5081473;28;19968;-56
2024/03/07 15:59:23;;;;;;;;;;;;;;;;;;5080738;28;19912;-60
2024/03/07 16:01:48;;;;;;;;;;;;;;;;;;5075637;28;19919;-58
2024/03/07 16:04:15;;;;;;;;;;;;;;;;;;5080225;28;19955;-59
2024/03/07 16:06:41;;;;;;;;;;;;;;;;;;5085662;28;19927;-60
2024/03/07 16:09:07;;;;;;;;;;;;;;;;;;5092355;28;19920;-58
2024/03/07 16:11:32;;;;;;;;;;;;;;;;;;5090293;28;19912;-58
2024/03/07 16:13:57;;;;;;;;;;;;;;;;;;5092472;28;20200;-59
2024/03/07 16:16:22;;;;;;;;;;;;;;;;;;5090085;28;19952;-59
2024/03/07 16:18:47;;;;;;;;;;;;;;;;;;5085720;28;19923;-57
2024/03/07 16:21:12;;;;;;;;;;;;;;;;;;5090469;28;20354;-58
2024/03/07 16:23:40;;;;;;;;;;;;;;;;;;5086933;28;19923;-57
2024/03/07 16:26:05;;;;;;;;;;;;;;;;;;5097188;28;19912;-59
2024/03/07 16:28:30;;;;;;;;;;;;;;;;;;5095545;28;19974;-58
2024/03/07 16:30:57;;;;;;;;;;;;;;;;;;5095820;28;19919;-58
2024/03/07 16:33:27;;;;;;;;;;;;;;;;;;5092879;28;19912;-58
2024/03/07 16:35:53;;;;;;;;;;;;;;;;;;5098392;28;20012;-58
2024/03/07 16:38:18;;;;;;;;;;;;;;;;;;5093431;28;20364;-57